Time;durP1;ratioP1;P1;durP2;ratioP2;P2;SDS_P1;SDS_P2;PMS_P1;PMS_P2;Temp;Humidity;BMP_temperature;BMP_pressure;BME280_temperature;BME280_humidity;BME280_pressure;Samples;Min_cycle;Max_cycle;Signal;HPM_P1;HPM_P2
2021/12/03 00:01:43;;;;;;;10.77;9.05;;;1.10;99.90;;;;;;5054164;28;20314;-75
2021/12/03 00:04:12;;;;;;;13.35;9.68;;;1.10;99.90;;;;;;5055684;28;20196;-75
2021/12/03 00:06:39;;;;;;;13.00;9.98;;;1.00;99.90;;;;;;5048568;28;20274;-72
2021/12/03 00:09:07;;;;;;;17.10;9.95;;;1.00;99.90;;;;;;5055355;28;20234;-73
2021/12/03 00:11:35;;;;;;;13.73;8.57;;;1.00;99.90;;;;;;5054486;28;20218;-73
2021/12/03 00:14:02;;;;;;;12.93;9.15;;;1.00;99.90;;;;;;5055496;28;20281;-75
2021/12/03 00:16:29;;;;;;;10.60;9.05;;;1.00;99.90;;;;;;5057358;28;20287;-73
2021/12/03 00:18:56;;;;;;;11.77;9.02;;;1.00;99.90;;;;;;5055443;28;20206;-73
2021/12/03 00:21:26;;;;;;;18.70;10.38;;;1.00;99.90;;;;;;5054273;28;20622;-72
2021/12/03 00:23:54;;;;;;;14.38;10.45;;;1.00;99.90;;;;;;5054131;28;20207;-73
2021/12/03 00:26:21;;;;;;;16.75;9.95;;;1.00;99.90;;;;;;5055049;28;20206;-73
2021/12/03 00:28:48;;;;;;;12.45;8.77;;;1.00;99.90;;;;;;5054453;28;20627;-73
2021/12/03 00:31:15;;;;;;;10.88;8.70;;;1.00;99.90;;;;;;5053967;28;20576;-74
2021/12/03 00:33:42;;;;;;;10.40;8.23;;;1.00;99.90;;;;;;5051893;28;20220;-73
2021/12/03 00:36:11;;;;;;;13.15;10.57;;;1.00;99.90;;;;;;5054563;28;20279;-73
2021/12/03 00:38:45;;;;;;;13.00;9.88;;;1.00;99.90;;;;;;5054476;28;20209;-73
2021/12/03 00:41:15;;;;;;;10.80;9.43;;;1.00;99.90;;;;;;5054251;28;20231;-73
2021/12/03 00:43:44;;;;;;;11.13;9.95;;;1.00;99.90;;;;;;5047447;28;20220;-73
2021/12/03 00:46:14;;;;;;;10.32;8.80;;;1.00;99.90;;;;;;5051525;28;20219;-71
2021/12/03 00:48:41;;;;;;;11.02;9.45;;;1.00;99.90;;;;;;5046784;28;20192;-73
2021/12/03 00:51:10;;;;;;;13.75;9.82;;;1.00;99.90;;;;;;5045342;28;20206;-73
2021/12/03 00:53:40;;;;;;;15.20;11.50;;;1.00;99.90;;;;;;5053142;28;20230;-75
2021/12/03 00:56:08;;;;;;;10.20;9.07;;;1.00;99.90;;;;;;5053865;28;20222;-74
2021/12/03 00:58:35;;;;;;;13.13;9.25;;;1.00;99.90;;;;;;5053560;28;20203;-73
2021/12/03 01:01:02;;;;;;;11.73;10.45;;;1.00;99.90;;;;;;5052778;28;20206;-72
2021/12/03 01:03:30;;;;;;;15.80;10.70;;;1.00;99.90;;;;;;5035823;28;20662;-73
2021/12/03 01:05:57;;;;;;;11.80;10.60;;;1.00;99.90;;;;;;5027399;28;20561;-73
2021/12/03 01:08:24;;;;;;;14.23;11.20;;;1.00;99.90;;;;;;5031797;28;20558;-74
2021/12/03 01:10:52;;;;;;;10.73;8.90;;;1.00;99.90;;;;;;5034390;28;20669;-72
2021/12/03 01:13:20;;;;;;;11.13;9.63;;;1.10;99.90;;;;;;5034918;28;20355;-73
2021/12/03 01:15:47;;;;;;;10.45;9.35;;;1.00;99.90;;;;;;5035168;28;20197;-73
2021/12/03 01:18:15;;;;;;;12.30;10.02;;;1.00;99.90;;;;;;5040877;28;20193;-74
2021/12/03 01:20:43;;;;;;;13.43;11.52;;;1.00;99.90;;;;;;5031736;28;20279;-72
2021/12/03 01:23:12;;;;;;;10.93;9.35;;;1.10;99.90;;;;;;5033983;28;20311;-72
2021/12/03 01:25:39;;;;;;;11.43;10.05;;;1.10;99.90;;;;;;5033757;28;20197;-74
2021/12/03 01:28:08;;;;;;;15.23;9.60;;;1.10;99.90;;;;;;5034810;28;20195;-74
2021/12/03 01:30:36;;;;;;;17.08;10.13;;;1.10;99.90;;;;;;5033020;28;20291;-74
2021/12/03 01:33:05;;;;;;;11.48;9.45;;;1.10;99.90;;;;;;5032236;28;20237;-73
2021/12/03 01:35:35;;;;;;;9.70;8.60;;;1.10;99.90;;;;;;5034369;28;20230;-74
2021/12/03 01:38:03;;;;;;;9.70;8.80;;;1.10;99.90;;;;;;5034367;28;20219;-72
2021/12/03 01:40:31;;;;;;;11.27;10.15;;;1.10;99.90;;;;;;5034564;28;20200;-73
2021/12/03 01:42:58;;;;;;;9.48;8.48;;;1.10;99.90;;;;;;5033355;28;20698;-74
2021/12/03 01:45:30;;;;;;;12.32;10.77;;;1.10;99.90;;;;;;5033665;28;20731;-71
2021/12/03 01:47:58;;;;;;;11.40;9.00;;;1.10;99.90;;;;;;5027681;28;20289;-74
2021/12/03 01:50:26;;;;;;;12.05;9.63;;;1.10;99.90;;;;;;5033227;28;20220;-73
2021/12/03 01:52:53;;;;;;;12.43;8.80;;;1.10;99.90;;;;;;5034621;28;20224;-73
2021/12/03 01:55:21;;;;;;;11.00;9.25;;;1.10;99.90;;;;;;5033854;28;20672;-73
2021/12/03 01:57:48;;;;;;;12.25;9.20;;;1.10;99.90;;;;;;5034471;28;20242;-75
2021/12/03 02:00:24;;;;;;;11.25;9.82;;;1.10;99.90;;;;;;5033877;28;20200;-74
2021/12/03 02:02:53;;;;;;;10.05;9.05;;;1.00;99.90;;;;;;5047079;28;20277;-73
2021/12/03 02:05:20;;;;;;;11.73;10.27;;;1.00;99.90;;;;;;5046202;28;20682;-74
2021/12/03 02:07:47;;;;;;;12.25;9.40;;;1.00;99.90;;;;;;5053130;28;20718;-73
2021/12/03 02:10:16;;;;;;;14.02;10.00;;;1.00;99.90;;;;;;5052913;28;20227;-74
2021/12/03 02:12:44;;;;;;;10.13;9.18;;;1.00;99.90;;;;;;5052719;28;20238;-74
2021/12/03 02:15:11;;;;;;;16.48;9.77;;;1.00;99.90;;;;;;5052661;28;20199;-74
2021/12/03 02:17:38;;;;;;;11.85;10.65;;;1.00;99.90;;;;;;5046761;28;20230;-73
2021/12/03 02:20:09;;;;;;;11.07;8.65;;;1.10;99.90;;;;;;5052794;28;20214;-74
2021/12/03 02:22:38;;;;;;;12.25;8.93;;;1.00;99.90;;;;;;5052254;28;20270;-74
2021/12/03 02:25:07;;;;;;;11.32;9.85;;;1.10;99.90;;;;;;5052132;28;20206;-73
2021/12/03 02:27:34;;;;;;;8.90;8.18;;;1.10;99.90;;;;;;5052111;28;20240;-73
2021/12/03 02:30:01;;;;;;;11.85;9.68;;;1.10;99.90;;;;;;5053599;28;20205;-73
2021/12/03 02:32:28;;;;;;;11.85;10.65;;;1.10;99.90;;;;;;5045113;28;20306;-73
2021/12/03 02:34:55;;;;;;;10.82;9.82;;;1.10;99.90;;;;;;5056693;28;20196;-72
2021/12/03 02:37:22;;;;;;;13.02;8.48;;;1.10;99.90;;;;;;5056278;28;20298;-73
2021/12/03 02:39:50;;;;;;;11.63;8.95;;;1.10;99.90;;;;;;5056092;28;20286;-72
2021/12/03 02:42:18;;;;;;;10.57;9.55;;;1.10;99.90;;;;;;5047693;28;20215;-72
2021/12/03 02:44:45;;;;;;;10.43;9.43;;;1.10;99.90;;;;;;5056797;28;20668;-74
2021/12/03 02:47:12;;;;;;;11.60;9.13;;;1.10;99.90;;;;;;5055524;28;20532;-72
2021/12/03 02:49:40;;;;;;;14.40;9.70;;;1.10;99.90;;;;;;5047536;28;20699;-74
2021/12/03 02:52:09;;;;;;;10.20;9.20;;;1.10;99.90;;;;;;5055978;28;20306;-73
2021/12/03 02:54:36;;;;;;;11.15;9.40;;;1.10;99.90;;;;;;5055692;28;20209;-72
2021/12/03 02:57:05;;;;;;;15.80;10.23;;;1.10;99.90;;;;;;5054350;28;20286;-74
2021/12/03 02:59:33;;;;;;;12.52;10.25;;;1.10;99.90;;;;;;5055994;28;20199;-73
2021/12/03 03:02:01;;;;;;;11.93;10.65;;;1.10;99.90;;;;;;5055248;28;20234;-73
2021/12/03 03:04:29;;;;;;;12.95;10.10;;;1.10;99.90;;;;;;5057808;28;20204;-73
2021/12/03 03:06:56;;;;;;;11.23;10.13;;;1.10;99.90;;;;;;5048462;28;20269;-74
2021/12/03 03:09:24;;;;;;;11.57;10.38;;;1.10;99.90;;;;;;5053102;28;20666;-72
2021/12/03 03:11:51;;;;;;;20.33;9.20;;;1.10;99.90;;;;;;5055248;28;20235;-74
2021/12/03 03:14:20;;;;;;;13.15;11.52;;;1.10;99.90;;;;;;5054796;28;20659;-73
2021/12/03 03:16:47;;;;;;;13.68;10.77;;;1.10;99.90;;;;;;5055599;28;20234;-73
2021/12/03 03:19:16;;;;;;;12.10;10.60;;;1.10;99.90;;;;;;5057434;28;20199;-72
2021/12/03 03:21:45;;;;;;;12.43;11.13;;;1.10;99.90;;;;;;5055116;28;20197;-73
2021/12/03 03:24:12;;;;;;;12.50;9.95;;;1.20;99.90;;;;;;5053630;28;20212;-73
2021/12/03 03:26:44;;;;;;;11.48;10.27;;;1.20;99.90;;;;;;5044461;28;20526;-75
2021/12/03 03:29:13;;;;;;;11.82;10.82;;;1.20;99.90;;;;;;5049158;28;20207;-73
2021/12/03 03:31:42;;;;;;;13.38;11.32;;;1.20;99.90;;;;;;5043980;28;20286;-73
2021/12/03 03:34:10;;;;;;;12.98;11.32;;;1.20;99.90;;;;;;5050958;28;20227;-74
2021/12/03 03:36:42;;;;;;;11.65;10.10;;;1.20;99.90;;;;;;5046845;28;20606;-75
2021/12/03 03:39:11;;;;;;;14.02;12.73;;;1.20;99.90;;;;;;5048101;28;20595;-73
2021/12/03 03:41:38;;;;;;;14.25;12.55;;;1.20;99.90;;;;;;5054116;28;20196;-75
2021/12/03 03:44:05;;;;;;;13.75;12.38;;;1.20;99.90;;;;;;5055939;28;20204;-75
2021/12/03 03:46:33;;;;;;;14.38;12.30;;;1.30;99.90;;;;;;5055705;28;20214;-72
2021/12/03 03:49:01;;;;;;;17.75;13.45;;;1.30;99.90;;;;;;5055813;28;20646;-74
2021/12/03 03:51:28;;;;;;;13.52;11.48;;;1.30;99.90;;;;;;5054594;28;20227;-73
2021/12/03 03:53:55;;;;;;;17.02;13.75;;;1.40;99.90;;;;;;5055935;28;20210;-75
2021/12/03 03:56:22;;;;;;;16.40;12.85;;;1.40;99.90;;;;;;5055631;28;20212;-73
2021/12/03 03:58:49;;;;;;;13.80;11.85;;;1.40;99.90;;;;;;5055795;28;20247;-74
2021/12/03 04:01:16;;;;;;;13.63;12.23;;;1.40;99.90;;;;;;5055420;28;20286;-73
2021/12/03 04:03:46;;;;;;;23.08;13.05;;;1.40;99.90;;;;;;5056280;28;20303;-73
2021/12/03 04:06:15;;;;;;;18.63;13.10;;;1.40;99.90;;;;;;5056194;28;20196;-75
2021/12/03 04:08:42;;;;;;;14.27;11.65;;;1.40;99.90;;;;;;5047445;28;20206;-73
2021/12/03 04:11:10;;;;;;;23.23;14.10;;;1.50;99.90;;;;;;5054871;28;20206;-73
2021/12/03 04:13:37;;;;;;;17.25;12.38;;;1.50;99.90;;;;;;5054868;28;20306;-72
2021/12/03 04:16:04;;;;;;;15.73;11.52;;;1.40;99.90;;;;;;5055888;28;20286;-73
2021/12/03 04:18:31;;;;;;;13.48;12.18;;;1.50;99.90;;;;;;5054961;28;20232;-75
2021/12/03 04:20:58;;;;;;;16.75;11.73;;;1.40;99.90;;;;;;5054418;28;20204;-74
2021/12/03 04:23:27;;;;;;;16.83;12.45;;;1.50;99.90;;;;;;5055004;28;20228;-73
2021/12/03 04:25:54;;;;;;;15.75;11.27;;;1.50;99.90;;;;;;5055166;28;20265;-73
2021/12/03 04:28:23;;;;;;;13.00;11.18;;;1.50;99.90;;;;;;5054770;28;20206;-74
2021/12/03 04:30:51;;;;;;;11.80;10.70;;;1.50;99.90;;;;;;5053788;28;20217;-74
2021/12/03 04:33:18;;;;;;;16.33;12.43;;;1.50;99.90;;;;;;5055050;28;20632;-73
2021/12/03 04:35:46;;;;;;;14.20;12.75;;;1.60;99.90;;;;;;5054888;28;20213;-73
2021/12/03 04:38:13;;;;;;;11.02;9.93;;;1.60;99.90;;;;;;5055100;28;20225;-75
2021/12/03 04:40:43;;;;;;;12.10;10.85;;;1.60;99.90;;;;;;5054468;28;20227;-73
2021/12/03 04:43:16;;;;;;;17.98;10.80;;;1.60;99.90;;;;;;5055195;28;20227;-74
2021/12/03 04:45:44;;;;;;;13.50;10.95;;;1.60;99.90;;;;;;5054445;28;20200;-74
2021/12/03 04:48:11;;;;;;;10.90;9.80;;;1.70;99.90;;;;;;5054861;28;20195;-73
2021/12/03 04:50:41;;;;;;;10.57;9.57;;;1.70;99.90;;;;;;5054662;28;20234;-74
2021/12/03 04:53:08;;;;;;;10.90;9.90;;;1.70;99.90;;;;;;5053539;28;20723;-74
2021/12/03 04:55:36;;;;;;;13.75;9.30;;;1.70;99.90;;;;;;5054375;28;20202;-73
2021/12/03 04:58:05;;;;;;;27.35;11.50;;;1.70;99.90;;;;;;5052180;28;20713;-73
2021/12/03 05:00:35;;;;;;;10.90;9.75;;;1.70;99.90;;;;;;5053860;28;20581;-73
2021/12/03 05:03:02;;;;;;;13.07;10.18;;;1.70;99.90;;;;;;5053738;28;20223;-73
2021/12/03 05:05:32;;;;;;;11.18;9.85;;;1.70;99.90;;;;;;5053839;28;20294;-76
2021/12/03 05:08:01;;;;;;;13.40;11.88;;;1.80;99.90;;;;;;5054434;28;20199;-75
2021/12/03 05:10:30;;;;;;;14.57;10.55;;;1.90;99.90;;;;;;5053695;28;20202;-74
2021/12/03 05:12:59;;;;;;;11.95;10.75;;;1.80;99.90;;;;;;5053713;28;20227;-72
2021/12/03 05:15:28;;;;;;;12.30;10.25;;;1.80;99.90;;;;;;5053534;28;20646;-73
2021/12/03 05:17:55;;;;;;;13.85;12.43;;;1.80;99.90;;;;;;5054032;28;20308;-73
2021/12/03 05:20:22;;;;;;;14.82;11.73;;;1.80;99.90;;;;;;5053054;28;20682;-73
2021/12/03 05:22:49;;;;;;;13.55;11.27;;;1.80;99.90;;;;;;5056828;28;20224;-74
2021/12/03 05:25:16;;;;;;;12.65;11.30;;;1.80;99.90;;;;;;5054392;28;20200;-75
2021/12/03 05:27:43;;;;;;;13.30;10.27;;;1.80;99.90;;;;;;5053379;28;20681;-73
2021/12/03 05:30:11;;;;;;;13.65;12.32;;;1.90;99.90;;;;;;5053404;28;20286;-74
2021/12/03 05:32:40;;;;;;;13.15;10.93;;;1.90;99.90;;;;;;5053150;28;20310;-73
2021/12/03 05:35:10;;;;;;;15.00;11.45;;;1.90;99.90;;;;;;5053433;28;20217;-74
2021/12/03 05:37:37;;;;;;;12.60;9.77;;;1.90;99.90;;;;;;5053406;28;20246;-76
2021/12/03 05:40:07;;;;;;;13.50;11.18;;;1.90;99.90;;;;;;5053050;28;20195;-71
2021/12/03 05:42:34;;;;;;;12.50;11.40;;;1.90;99.90;;;;;;5052672;28;20237;-72
2021/12/03 05:45:01;;;;;;;14.70;12.07;;;1.90;99.90;;;;;;5053783;28;20195;-73
2021/12/03 05:47:28;;;;;;;12.98;11.65;;;1.90;99.90;;;;;;5053788;28;20207;-75
2021/12/03 05:49:56;;;;;;;12.45;11.10;;;1.90;99.90;;;;;;5052371;28;20650;-73
2021/12/03 05:52:23;;;;;;;12.82;11.52;;;1.90;99.90;;;;;;5054266;28;20219;-73
2021/12/03 05:54:50;;;;;;;13.52;11.68;;;1.90;99.90;;;;;;5054535;28;20203;-75
2021/12/03 05:57:17;;;;;;;16.60;13.02;;;1.90;99.90;;;;;;5053619;28;20283;-76
2021/12/03 05:59:44;;;;;;;15.45;12.30;;;1.90;99.90;;;;;;5052855;28;20670;-74
2021/12/03 06:02:11;;;;;;;15.38;12.75;;;1.80;99.90;;;;;;5053580;28;20310;-76
2021/12/03 06:04:38;;;;;;;16.77;14.05;;;1.90;99.90;;;;;;5052762;28;20196;-75
2021/12/03 06:07:07;;;;;;;15.73;13.13;;;1.90;99.90;;;;;;5060033;28;20274;-73
2021/12/03 06:09:35;;;;;;;14.30;12.82;;;1.90;99.90;;;;;;5053048;28;20199;-75
2021/12/03 06:12:02;;;;;;;17.13;13.02;;;1.90;99.90;;;;;;5052827;28;20219;-73
2021/12/03 06:14:29;;;;;;;17.85;15.95;;;1.90;99.90;;;;;;5056196;28;20231;-73
2021/12/03 06:16:57;;;;;;;16.48;13.10;;;1.90;99.90;;;;;;5053088;28;20202;-76
2021/12/03 06:19:24;;;;;;;16.67;14.02;;;1.90;99.90;;;;;;5056268;28;20234;-76
2021/12/03 06:21:51;;;;;;;19.15;17.05;;;1.90;99.90;;;;;;5057237;28;20326;-73
2021/12/03 06:24:20;;;;;;;15.95;13.88;;;1.90;99.90;;;;;;5053061;28;20198;-76
2021/12/03 06:26:47;;;;;;;22.83;16.75;;;1.90;99.90;;;;;;5052036;28;20206;-75
2021/12/03 06:29:14;;;;;;;22.10;16.58;;;1.90;99.90;;;;;;5052891;28;20282;-74
2021/12/03 06:31:41;;;;;;;19.02;15.50;;;1.90;99.90;;;;;;5051629;28;20207;-72
2021/12/03 06:34:08;;;;;;;20.25;17.55;;;1.90;99.90;;;;;;5052430;28;20200;-74
2021/12/03 06:36:35;;;;;;;23.48;18.20;;;1.90;99.90;;;;;;5052804;28;20278;-74
2021/12/03 06:39:02;;;;;;;22.00;18.85;;;1.90;99.90;;;;;;5052381;28;20224;-73
2021/12/03 06:41:30;;;;;;;24.20;20.27;;;1.80;99.90;;;;;;5051744;28;20290;-76
2021/12/03 06:43:57;;;;;;;23.88;21.15;;;1.80;99.90;;;;;;5052889;28;20316;-75
2021/12/03 06:46:24;;;;;;;32.30;21.95;;;1.80;99.90;;;;;;5052201;28;20609;-74
2021/12/03 06:48:51;;;;;;;34.17;21.23;;;1.70;99.90;;;;;;5052106;28;20246;-70
2021/12/03 06:51:18;;;;;;;29.63;22.10;;;1.70;99.90;;;;;;5051127;28;20203;-72
2021/12/03 06:53:54;;;;;;;21.73;18.88;;;2.00;99.90;;;;;;5051076;28;20222;-71
2021/12/03 06:56:23;;;;;;;27.73;21.50;;;2.10;99.90;;;;;;5053751;28;20579;-72
2021/12/03 06:58:51;;;;;;;27.98;23.23;;;2.10;99.90;;;;;;5054476;28;20307;-71
2021/12/03 07:01:18;;;;;;;33.35;22.92;;;1.90;99.90;;;;;;5051095;28;20279;-70
2021/12/03 07:03:45;;;;;;;26.20;23.40;;;1.80;99.90;;;;;;5052463;28;20254;-72
2021/12/03 07:06:12;;;;;;;33.03;24.48;;;1.80;99.90;;;;;;5045414;28;20287;-74
2021/12/03 07:08:39;;;;;;;26.23;21.45;;;1.80;99.90;;;;;;5052268;28;20199;-75
2021/12/03 07:11:06;;;;;;;36.85;28.40;;;1.80;99.90;;;;;;5051685;28;20290;-74
2021/12/03 07:13:33;;;;;;;35.30;26.50;;;1.90;99.90;;;;;;5050567;28;20228;-74
2021/12/03 07:16:04;;;;;;;42.50;28.08;;;1.80;99.90;;;;;;5052045;28;20200;-75
2021/12/03 07:18:31;;;;;;;33.53;25.30;;;1.70;99.90;;;;;;5054016;28;20215;-73
2021/12/03 07:20:59;;;;;;;29.92;26.40;;;1.80;99.90;;;;;;5055352;28;20657;-76
2021/12/03 07:23:26;;;;;;;35.53;27.60;;;1.70;99.90;;;;;;5055629;28;20219;-73
2021/12/03 07:25:53;;;;;;;35.10;27.13;;;1.70;99.90;;;;;;5052212;28;20247;-76
2021/12/03 07:28:20;;;;;;;33.10;27.83;;;1.70;99.90;;;;;;5052987;28;20202;-71
2021/12/03 07:30:48;;;;;;;33.42;28.33;;;1.70;99.90;;;;;;5053121;28;20638;-76
2021/12/03 07:33:18;;;;;;;38.45;27.35;;;1.70;99.90;;;;;;5051994;28;20306;-76
2021/12/03 07:35:46;;;;;;;40.28;29.42;;;1.60;99.90;;;;;;5055323;28;20199;-75
2021/12/03 07:38:14;;;;;;;44.85;30.05;;;1.60;99.90;;;;;;5055493;28;20228;-72
2021/12/03 07:40:43;;;;;;;41.47;30.33;;;1.50;99.90;;;;;;5040034;28;20989;-76
2021/12/03 07:43:10;;;;;;;53.17;31.92;;;1.60;99.90;;;;;;5042402;28;20702;-77
2021/12/03 07:45:38;;;;;;;41.40;30.67;;;1.60;99.90;;;;;;5052396;28;20200;-75
2021/12/03 07:48:06;;;;;;;48.28;33.15;;;1.60;99.90;;;;;;5052320;28;20282;-77
2021/12/03 07:50:37;;;;;;;43.80;29.73;;;1.60;99.90;;;;;;5049045;28;20224;-74
2021/12/03 07:53:05;;;;;;;49.40;31.60;;;1.60;99.90;;;;;;5055296;28;20223;-77
2021/12/03 07:55:32;;;;;;;50.83;32.20;;;1.60;99.90;;;;;;5054794;28;20223;-74
2021/12/03 07:57:59;;;;;;;44.67;33.30;;;1.60;99.90;;;;;;5055072;28;20218;-74
2021/12/03 08:00:26;;;;;;;42.67;31.98;;;1.60;99.90;;;;;;5052164;28;20282;-75
2021/12/03 08:02:53;;;;;;;41.42;29.83;;;1.70;99.90;;;;;;5045780;28;20685;-77
2021/12/03 08:05:20;;;;;;;36.03;25.55;;;1.70;99.90;;;;;;5041406;28;20268;-76
2021/12/03 08:07:51;;;;;;;44.63;28.80;;;1.70;99.90;;;;;;5057121;28;20745;-75
2021/12/03 08:10:18;;;;;;;47.90;29.80;;;1.80;99.90;;;;;;5051832;28;20212;-75
2021/12/03 08:12:46;;;;;;;45.47;29.35;;;1.90;99.90;;;;;;5056033;28;20308;-80
2021/12/03 08:15:15;;;;;;;41.25;27.77;;;2.00;99.90;;;;;;5056033;28;20322;-77
2021/12/03 08:17:42;;;;;;;40.22;27.02;;;2.00;99.90;;;;;;5055335;28;20768;-76
2021/12/03 08:20:11;;;;;;;48.67;30.67;;;2.10;99.90;;;;;;5055200;28;20311;-76
2021/12/03 08:22:38;;;;;;;39.75;29.75;;;2.20;99.90;;;;;;5052231;28;20223;-74
2021/12/03 08:25:09;;;;;;;45.40;29.48;;;2.20;99.90;;;;;;5048734;28;20250;-73
2021/12/03 08:27:36;;;;;;;49.28;30.65;;;2.30;99.90;;;;;;5053841;28;20306;-73
2021/12/03 08:30:05;;;;;;;41.65;29.33;;;2.30;99.90;;;;;;5049665;28;20347;-75
2021/12/03 08:32:32;;;;;;;43.20;28.35;;;2.30;99.90;;;;;;5053072;28;20227;-76
2021/12/03 08:35:00;;;;;;;48.92;27.98;;;2.40;99.90;;;;;;5047212;28;20200;-73
2021/12/03 08:37:26;;;;;;;36.28;26.65;;;2.50;99.90;;;;;;5052740;28;20239;-76
2021/12/03 08:39:53;;;;;;;40.58;27.75;;;2.50;99.90;;;;;;5055318;28;20224;-75
2021/12/03 08:42:22;;;;;;;46.47;28.90;;;2.60;99.90;;;;;;5047128;28;20383;-76
2021/12/03 08:44:49;;;;;;;50.15;28.35;;;2.60;99.90;;;;;;5055224;28;20231;-75
2021/12/03 08:47:17;;;;;;;48.50;29.85;;;2.70;99.90;;;;;;5057020;28;20211;-77
2021/12/03 08:49:48;;;;;;;40.97;26.40;;;2.70;99.90;;;;;;5057888;28;20332;-77
2021/12/03 08:55:22;;;;;;;46.10;29.73;;;2.80;99.90;;;;;;4993940;28;20257;-76
2021/12/03 08:57:57;;;;;;;41.05;25.83;;;2.90;99.90;;;;;;5040159;28;20294;-75
2021/12/03 09:00:25;;;;;;;38.78;25.58;;;2.90;99.90;;;;;;5055581;28;20233;-75
2021/12/03 09:02:52;;;;;;;43.92;24.70;;;2.90;99.90;;;;;;5055427;28;20584;-76
2021/12/03 09:05:29;;;;;;;43.22;27.80;;;3.00;99.90;;;;;;5063374;28;20683;-76
2021/12/03 09:07:56;;;;;;;47.25;27.92;;;3.00;99.90;;;;;;5052390;28;20217;-77
2021/12/03 09:10:23;;;;;;;41.40;26.92;;;2.90;99.90;;;;;;5054648;28;20306;-76
2021/12/03 09:12:50;;;;;;;45.85;24.40;;;3.00;99.90;;;;;;5054364;28;20318;-76
2021/12/03 09:15:22;;;;;;;38.70;28.10;;;2.90;99.90;;;;;;5053129;28;20202;-75
2021/12/03 09:18:02;;;;;;;41.15;27.65;;;3.00;99.90;;;;;;5052529;28;20221;-75
2021/12/03 09:20:40;;;;;;;50.13;29.02;;;3.10;99.90;;;;;;5053108;28;20686;-75
2021/12/03 09:23:11;;;;;;;47.83;24.65;;;3.00;99.90;;;;;;5031180;28;20215;-75
2021/12/03 09:25:44;;;;;;;38.25;25.17;;;3.00;99.90;;;;;;5053816;28;20204;-74
2021/12/03 09:28:16;;;;;;;48.67;29.02;;;3.30;99.90;;;;;;5059771;28;20234;-76
2021/12/03 09:30:47;;;;;;;39.90;26.67;;;3.40;99.90;;;;;;5054643;28;20211;-77
2021/12/03 09:33:18;;;;;;;49.97;27.77;;;3.40;99.90;;;;;;5054211;28;20226;-76
2021/12/03 09:35:50;;;;;;;39.70;26.42;;;3.30;99.90;;;;;;5051414;28;20202;-77
2021/12/03 09:38:17;;;;;;;44.13;24.95;;;3.50;99.90;;;;;;5047363;28;20214;-77
2021/12/03 09:40:44;;;;;;;46.17;27.33;;;3.60;99.90;;;;;;5049831;28;20257;-76
2021/12/03 09:43:11;;;;;;;40.63;25.15;;;3.50;99.90;;;;;;5053501;28;20688;-76
2021/12/03 09:45:40;;;;;;;44.15;27.10;;;3.60;99.90;;;;;;5054030;28;20223;-76
2021/12/03 09:48:17;;;;;;;52.28;26.95;;;3.50;99.90;;;;;;5055193;28;20237;-76
2021/12/03 09:50:45;;;;;;;35.35;23.77;;;3.60;99.90;;;;;;5053507;28;20642;-76
2021/12/03 09:53:26;;;;;;;37.42;23.83;;;3.90;99.90;;;;;;5054209;28;20297;-76
2021/12/03 09:55:54;;;;;;;43.63;25.77;;;3.90;99.90;;;;;;5054749;28;20206;-76
2021/12/03 09:58:37;;;;;;;44.45;27.15;;;3.90;99.90;;;;;;5051144;28;20207;-76
2021/12/03 10:01:09;;;;;;;44.63;25.52;;;3.90;99.90;;;;;;5053020;28;20242;-77
2021/12/03 10:12:37;;;;;;;49.20;29.00;;;3.70;99.90;;;;;;5036218;28;20211;-76
2021/12/03 10:15:10;;;;;;;47.03;23.73;;;3.60;99.90;;;;;;5054405;28;20203;-75
2021/12/03 10:17:49;;;;;;;50.92;26.88;;;3.50;99.90;;;;;;5055725;28;20217;-76
2021/12/03 10:20:28;;;;;;;45.67;27.05;;;3.40;99.90;;;;;;5056958;28;20576;-76
2021/12/03 10:29:14;;;;;;;49.47;26.23;;;3.40;99.90;;;;;;5042945;28;20195;-76
2021/12/03 10:43:24;;;;;;;53.40;26.92;;;3.40;99.90;;;;;;5049292;28;20217;-75
2021/12/03 10:46:18;;;;;;;41.10;22.85;;;3.60;99.90;;;;;;5047160;28;20199;-75
2021/12/03 10:48:54;;;;;;;41.17;25.70;;;3.60;99.90;;;;;;5031654;28;20269;-77
2021/12/03 10:51:33;;;;;;;41.78;23.65;;;3.60;99.90;;;;;;5053638;28;20293;-75
2021/12/03 10:54:07;;;;;;;59.20;26.10;;;3.50;99.90;;;;;;5038946;28;20230;-75
2021/12/03 10:56:47;;;;;;;42.28;24.10;;;3.60;99.90;;;;;;5042934;28;20211;-76
2021/12/03 12:44:51;;;;;;;33.92;16.50;;;4.60;99.90;;;;;;5037212;28;20195;-76
2021/12/03 13:19:20;;;;;;;24.55;14.38;;;4.60;99.90;;;;;;4995760;28;20198;-75
2021/12/03 14:06:54;;;;;;;15.80;9.95;;;4.10;99.90;;;;;;5054108;28;20672;-77
2021/12/03 14:09:53;;;;;;;19.48;9.52;;;4.10;99.90;;;;;;5045372;28;20326;-78
2021/12/03 14:38:18;;;;;;;22.48;11.07;;;3.90;99.90;;;;;;5058183;28;20246;-78
2021/12/03 14:46:42;;;;;;;19.48;11.90;;;3.90;99.90;;;;;;5056727;28;20192;-77
2021/12/03 14:52:19;;;;;;;14.40;9.68;;;4.00;99.90;;;;;;5052954;28;20218;-78
2021/12/03 14:54:50;;;;;;;14.85;8.95;;;4.00;99.90;;;;;;5051039;28;20661;-77
2021/12/03 14:57:29;;;;;;;15.55;9.45;;;4.00;99.90;;;;;;5057550;28;20219;-76
2021/12/03 15:00:09;;;;;;;14.07;10.95;;;3.90;99.90;;;;;;5057184;28;20211;-78
2021/12/03 15:02:56;;;;;;;18.98;10.88;;;3.90;99.90;;;;;;5039805;28;20230;-78
2021/12/03 15:05:47;;;;;;;16.38;10.63;;;3.90;99.90;;;;;;5060105;28;20591;-77
2021/12/03 15:08:17;;;;;;;13.85;9.40;;;3.90;99.90;;;;;;5060465;28;20203;-77
2021/12/03 15:11:04;;;;;;;15.63;10.18;;;3.90;99.90;;;;;;5058156;28;20207;-77
2021/12/03 15:24:59;;;;;;;15.07;10.48;;;3.80;99.90;;;;;;4998559;28;20204;-77
2021/12/03 15:30:28;;;;;;;16.08;12.55;;;3.80;99.90;;;;;;5048665;28;20183;-76
2021/12/03 15:33:00;;;;;;;21.65;11.63;;;3.90;99.90;;;;;;5047799;28;20705;-78
2021/12/03 15:35:34;;;;;;;16.95;11.30;;;3.90;99.90;;;;;;5061468;28;20204;-78
2021/12/03 15:38:18;;;;;;;18.65;12.93;;;3.90;99.90;;;;;;5050673;28;20205;-79
2021/12/03 15:57:30;;;;;;;23.48;12.18;;;3.90;99.90;;;;;;5057664;28;20191;-77
2021/12/03 16:05:56;;;;;;;27.35;17.45;;;4.00;99.90;;;;;;5064595;28;20603;-79
2021/12/03 16:08:25;;;;;;;33.90;22.15;;;4.00;99.90;;;;;;5058648;28;20349;-76
2021/12/03 16:11:01;;;;;;;21.73;12.85;;;4.00;99.90;;;;;;5062585;28;20199;-76
2021/12/03 16:13:39;;;;;;;30.20;18.10;;;4.00;99.90;;;;;;5059094;28;20234;-77
2021/12/03 16:16:41;;;;;;;22.70;15.93;;;4.00;99.90;;;;;;5073453;28;20628;-80
2021/12/03 16:22:20;;;;;;;32.80;17.70;;;3.90;99.90;;;;;;5066046;28;20390;-75
2021/12/03 16:44:03;;;;;;;20.70;15.40;;;4.00;99.90;;;;;;5056054;28;20207;-76
2021/12/03 16:46:55;;;;;;;21.65;12.75;;;4.00;99.90;;;;;;5063649;28;20669;-75
2021/12/03 16:52:21;;;;;;;18.77;14.75;;;4.10;99.90;;;;;;5024841;28;20212;-77
2021/12/03 16:54:52;;;;;;;34.17;15.77;;;4.10;99.90;;;;;;5054453;28;20214;-76
2021/12/03 16:57:19;;;;;;;23.35;17.30;;;4.10;99.90;;;;;;5040365;28;20536;-75
2021/12/03 16:59:47;;;;;;;22.42;17.45;;;4.20;99.90;;;;;;5050888;28;20195;-75
2021/12/03 17:02:19;;;;;;;25.75;19.27;;;4.10;99.90;;;;;;5052298;28;20306;-75
2021/12/03 17:05:15;;;;;;;27.70;18.13;;;4.10;99.90;;;;;;5061219;28;20200;-75
2021/12/03 17:13:39;;;;;;;23.30;17.55;;;4.20;99.90;;;;;;5061306;28;20206;-75
2021/12/03 17:46:55;;;;;;;18.98;15.95;;;4.30;99.90;;;;;;5050683;28;20218;-77
2021/12/03 17:49:32;;;;;;;20.92;17.17;;;4.30;99.90;;;;;;5044039;28;20207;-75
2021/12/03 17:52:15;;;;;;;24.83;16.10;;;4.40;99.90;;;;;;5047496;28;20364;-75
2021/12/03 17:55:10;;;;;;;19.63;15.68;;;4.30;99.90;;;;;;5051825;28;20241;-76
2021/12/03 17:57:42;;;;;;;18.27;13.80;;;4.30;99.90;;;;;;5039232;28;20206;-77
2021/12/03 18:00:16;;;;;;;16.80;14.63;;;4.30;99.90;;;;;;5048799;28;20203;-74
2021/12/03 18:02:45;;;;;;;16.55;14.25;;;4.40;99.90;;;;;;5051428;28;20677;-75
2021/12/03 18:05:29;;;;;;;15.55;12.32;;;4.40;99.90;;;;;;5041546;28;20251;-75
2021/12/03 18:08:03;;;;;;;15.85;13.70;;;4.40;99.90;;;;;;5047661;28;20618;-77
2021/12/03 18:10:44;;;;;;;15.65;13.32;;;4.30;99.90;;;;;;5045634;28;20215;-74
2021/12/03 18:19:16;;;;;;;16.48;13.05;;;4.40;99.90;;;;;;5005149;28;20204;-74
2021/12/03 18:44:26;;;;;;;16.65;13.13;;;4.50;99.90;;;;;;5009203;28;20228;-75
2021/12/03 18:47:15;;;;;;;16.90;14.20;;;4.60;99.90;;;;;;4999214;28;20213;-72
2021/12/03 18:52:45;;;;;;;16.42;13.30;;;4.60;99.90;;;;;;5051992;28;20358;-72
2021/12/03 18:55:14;;;;;;;15.00;12.30;;;4.60;99.90;;;;;;5042831;28;20215;-72
2021/12/03 18:57:44;;;;;;;16.75;14.43;;;4.60;99.90;;;;;;5048442;28;20198;-74
2021/12/03 19:00:16;;;;;;;16.88;12.52;;;4.60;99.90;;;;;;5052318;28;20211;-73
2021/12/03 19:02:46;;;;;;;14.18;12.60;;;4.60;99.90;;;;;;5043432;28;20682;-73
2021/12/03 19:05:18;;;;;;;18.42;14.82;;;4.60;99.90;;;;;;5048426;28;20203;-73
2021/12/03 19:07:48;;;;;;;19.35;13.23;;;4.60;99.90;;;;;;5045863;28;20559;-73
2021/12/03 19:10:19;;;;;;;15.23;12.93;;;4.60;99.90;;;;;;5041668;28;20248;-76